Time;durP1;ratioP1;P1;durP2;ratioP2;P2;SDS_P1;SDS_P2;PMS_P1;PMS_P2;Temp;Humidity;BMP_temperature;BMP_pressure;BME280_temperature;BME280_humidity;BME280_pressure;Samples;Min_cycle;Max_cycle;Signal;HPM_P1;HPM_P2
2023/08/13 00:01:19;;;;;;;5.05;1.83;;;17.00;99.90;;;;;;5151977;27;20554;-86
2023/08/13 00:03:50;;;;;;;4.18;1.80;;;17.00;99.90;;;;;;5151095;27;20197;-85
2023/08/13 00:06:21;;;;;;;4.20;1.85;;;17.00;99.90;;;;;;5152986;27;20571;-86
2023/08/13 00:08:52;;;;;;;7.28;2.50;;;17.00;99.90;;;;;;5136630;27;20527;-85
2023/08/13 00:11:22;;;;;;;6.05;2.47;;;17.00;99.90;;;;;;5143854;27;20594;-83
2023/08/13 00:13:53;;;;;;;4.68;2.53;;;16.90;99.90;;;;;;5132961;27;20204;-84
2023/08/13 00:16:26;;;;;;;5.47;1.98;;;17.10;99.90;;;;;;5131940;27;20225;-85
2023/08/13 00:18:57;;;;;;;4.55;1.83;;;17.20;99.90;;;;;;5131576;27;20234;-85
2023/08/13 00:21:27;;;;;;;6.05;1.88;;;17.20;99.90;;;;;;5146814;27;20632;-85
2023/08/13 00:23:59;;;;;;;6.68;1.52;;;17.40;99.90;;;;;;5153101;27;20299;-85
2023/08/13 00:26:30;;;;;;;6.00;1.73;;;17.40;99.90;;;;;;5156455;27;20216;-84
2023/08/13 00:29:01;;;;;;;4.45;1.40;;;17.40;99.90;;;;;;5140173;27;20200;-85
2023/08/13 00:31:34;;;;;;;3.50;1.58;;;17.40;99.90;;;;;;5147396;27;20225;-84
2023/08/13 00:34:05;;;;;;;3.38;1.33;;;17.40;99.90;;;;;;5156969;27;20199;-85
2023/08/13 00:36:35;;;;;;;5.47;1.35;;;17.50;99.90;;;;;;5155323;27;20228;-85
2023/08/13 00:39:06;;;;;;;5.78;1.40;;;17.50;99.90;;;;;;5143877;27;20538;-83
2023/08/13 00:41:38;;;;;;;4.43;1.30;;;17.50;99.90;;;;;;5141412;27;20604;-84
2023/08/13 00:44:09;;;;;;;4.25;1.60;;;17.50;99.90;;;;;;5154216;27;20193;-85
2023/08/13 00:46:42;;;;;;;3.60;1.20;;;17.50;99.90;;;;;;5136158;27;20648;-86
2023/08/13 00:49:13;;;;;;;2.55;1.23;;;17.60;99.90;;;;;;5144477;27;20217;-86
2023/08/13 00:51:44;;;;;;;3.25;1.27;;;17.70;99.90;;;;;;5159120;27;20189;-87
2023/08/13 00:54:14;;;;;;;2.63;1.25;;;17.80;99.90;;;;;;5140904;27;20205;-86
2023/08/13 00:56:47;;;;;;;7.18;1.85;;;17.90;99.90;;;;;;5135144;27;20221;-86
2023/08/13 00:59:18;;;;;;;4.18;1.27;;;18.00;99.90;;;;;;5135322;27;20209;-86
2023/08/13 01:01:51;;;;;;;1.75;1.00;;;18.00;99.90;;;;;;5147392;27;20197;-86
2023/08/13 01:04:22;;;;;;;4.05;1.30;;;18.20;99.90;;;;;;5156053;27;20284;-86
2023/08/13 01:07:02;;;;;;;1.60;1.00;;;18.30;99.90;;;;;;5151522;27;20198;-87
2023/08/13 01:09:41;;;;;;;4.88;1.02;;;18.30;99.90;;;;;;5147432;27;20707;-85
2023/08/13 01:12:19;;;;;;;1.65;0.90;;;18.30;99.90;;;;;;5135929;27;20288;-86
2023/08/13 01:14:58;;;;;;;1.88;0.80;;;18.60;99.90;;;;;;5145969;27;20199;-86
2023/08/13 01:17:32;;;;;;;2.45;1.00;;;18.60;99.90;;;;;;5135370;27;20225;-86
2023/08/13 01:20:05;;;;;;;3.03;1.08;;;18.50;99.90;;;;;;5133253;27;20296;-86
2023/08/13 01:22:47;;;;;;;3.45;1.38;;;18.50;99.90;;;;;;5134169;27;20681;-86
2023/08/13 01:25:19;;;;;;;3.05;1.35;;;18.60;99.90;;;;;;5143997;27;20561;-86
2023/08/13 01:27:55;;;;;;;2.90;1.05;;;18.80;99.90;;;;;;5139130;27;20232;-86
2023/08/13 01:30:31;;;;;;;4.25;0.90;;;18.80;99.90;;;;;;5154650;27;20200;-84
2023/08/13 01:33:05;;;;;;;2.53;1.17;;;18.90;99.90;;;;;;5144408;27;20278;-85
2023/08/13 01:35:37;;;;;;;2.00;1.10;;;19.00;99.90;;;;;;5133219;27;20194;-86
2023/08/13 01:38:10;;;;;;;2.03;1.10;;;18.90;99.90;;;;;;5133300;27;20222;-86
2023/08/13 01:40:42;;;;;;;3.95;1.30;;;18.90;99.90;;;;;;5140471;27;20331;-86
2023/08/13 01:43:12;;;;;;;3.83;1.20;;;19.00;99.90;;;;;;5133537;27;20200;-86
2023/08/13 01:45:43;;;;;;;5.20;1.48;;;19.10;99.90;;;;;;5134593;27;20194;-86
2023/08/13 01:48:14;;;;;;;3.85;1.30;;;19.00;99.90;;;;;;5133645;28;20205;-85
2023/08/13 01:50:45;;;;;;;2.30;1.17;;;19.10;99.90;;;;;;5132024;27;20190;-87
2023/08/13 01:53:18;;;;;;;2.15;0.80;;;19.00;99.90;;;;;;5144802;27;20202;-86
2023/08/13 01:55:49;;;;;;;1.95;0.88;;;19.00;99.90;;;;;;5136653;27;20174;-87
2023/08/13 01:58:20;;;;;;;2.45;1.00;;;19.10;99.90;;;;;;5147168;27;20216;-87
2023/08/13 02:00:50;;;;;;;1.90;1.00;;;19.20;99.90;;;;;;5154326;27;20178;-85
2023/08/13 02:03:21;;;;;;;3.92;1.60;;;19.20;99.90;;;;;;5137951;27;20197;-86
2023/08/13 02:05:52;;;;;;;3.72;1.75;;;19.10;99.90;;;;;;5134301;27;20201;-85
2023/08/13 02:08:25;;;;;;;3.40;1.77;;;19.10;99.90;;;;;;5152805;27;20227;-85
2023/08/13 02:10:56;;;;;;;3.40;1.42;;;19.10;99.90;;;;;;5154090;27;20193;-86
2023/08/13 02:13:26;;;;;;;2.28;1.10;;;19.10;99.90;;;;;;5154057;27;20194;-85
2023/08/13 02:16:03;;;;;;;1.30;0.80;;;19.10;99.90;;;;;;5153147;27;20197;-86
2023/08/13 02:18:34;;;;;;;4.07;1.25;;;19.20;99.90;;;;;;5061882;27;2560833;-86
2023/08/13 02:21:05;;;;;;;4.00;2.00;;;19.10;99.90;;;;;;5133783;27;20197;-85
2023/08/13 02:23:37;;;;;;;2.47;0.95;;;19.20;99.90;;;;;;5132980;27;20690;-86
2023/08/13 02:26:08;;;;;;;2.05;0.85;;;19.20;99.90;;;;;;5134181;27;20205;-86
2023/08/13 02:28:39;;;;;;;0.77;0.65;;;19.10;99.90;;;;;;5133946;27;20568;-85
2023/08/13 02:31:09;;;;;;;2.20;1.00;;;19.10;99.90;;;;;;5133458;27;20202;-85
2023/08/13 02:33:40;;;;;;;2.42;0.90;;;19.10;99.90;;;;;;5133452;27;20202;-86
2023/08/13 02:36:11;;;;;;;0.88;0.60;;;19.30;99.90;;;;;;5139246;27;20659;-86
2023/08/13 02:38:44;;;;;;;1.30;0.60;;;19.30;99.90;;;;;;5155365;27;20198;-87
2023/08/13 02:41:14;;;;;;;1.83;0.80;;;19.20;99.90;;;;;;5147448;27;20236;-86
2023/08/13 02:43:56;;;;;;;2.17;1.00;;;19.30;99.90;;;;;;5154224;27;20200;-86
2023/08/13 02:46:28;;;;;;;2.00;1.10;;;19.40;99.90;;;;;;5153773;27;20664;-86
2023/08/13 02:48:59;;;;;;;3.65;1.10;;;19.40;99.90;;;;;;5154066;27;20189;-86
2023/08/13 02:51:30;;;;;;;2.25;0.90;;;19.40;99.90;;;;;;5154099;27;20201;-86
2023/08/13 02:54:04;;;;;;;0.80;0.50;;;19.40;99.90;;;;;;5142935;27;20193;-86
2023/08/13 02:56:35;;;;;;;1.35;0.70;;;19.30;99.90;;;;;;5133801;27;20695;-86
2023/08/13 02:59:06;;;;;;;1.30;0.65;;;19.20;99.90;;;;;;5148605;27;20686;-86
2023/08/13 03:01:38;;;;;;;1.75;0.90;;;19.20;99.90;;;;;;5154073;27;20208;-86
2023/08/13 03:04:09;;;;;;;2.92;1.20;;;19.30;99.90;;;;;;5154419;27;20564;-87
2023/08/13 03:06:40;;;;;;;1.58;1.13;;;19.30;99.90;;;;;;5154239;27;20213;-86
2023/08/13 03:09:21;;;;;;;4.57;2.17;;;19.20;99.90;;;;;;5154599;27;20189;-87
2023/08/13 03:11:52;;;;;;;2.53;1.02;;;19.40;99.90;;;;;;5153680;27;20564;-86
2023/08/13 03:14:22;;;;;;;2.47;1.10;;;19.20;99.90;;;;;;5151515;27;20200;-84
2023/08/13 03:16:53;;;;;;;2.08;1.17;;;19.10;99.90;;;;;;5150950;27;20197;-86
2023/08/13 03:19:24;;;;;;;1.15;0.80;;;19.10;99.90;;;;;;5164796;27;20232;-85
2023/08/13 03:21:55;;;;;;;2.28;1.42;;;19.10;99.90;;;;;;5153698;27;20204;-85
2023/08/13 03:24:31;;;;;;;2.33;1.00;;;19.10;99.90;;;;;;5157595;27;20247;-84
2023/08/13 03:27:01;;;;;;;1.98;1.35;;;19.10;99.90;;;;;;5145616;27;20562;-86
2023/08/13 03:29:32;;;;;;;2.15;1.15;;;19.10;99.90;;;;;;5154124;27;20196;-85
2023/08/13 03:32:03;;;;;;;0.98;0.90;;;19.10;99.90;;;;;;5141167;27;20189;-85
2023/08/13 03:34:34;;;;;;;1.50;0.80;;;19.10;99.90;;;;;;5132358;27;20190;-85
2023/08/13 03:37:05;;;;;;;2.13;1.02;;;19.30;99.90;;;;;;5145562;27;20582;-86
2023/08/13 03:39:37;;;;;;;1.70;1.00;;;19.30;99.90;;;;;;5147425;27;20201;-86
2023/08/13 03:42:08;;;;;;;2.80;0.70;;;19.30;99.90;;;;;;5131290;27;20194;-86
2023/08/13 03:44:39;;;;;;;2.03;1.20;;;19.30;99.90;;;;;;5132080;27;20285;-85
2023/08/13 03:47:10;;;;;;;2.10;1.30;;;19.40;99.90;;;;;;5152783;27;20280;-84
2023/08/13 03:49:40;;;;;;;3.75;1.30;;;19.30;99.90;;;;;;5152752;27;20193;-85
2023/08/13 03:52:11;;;;;;;1.90;1.10;;;19.40;99.90;;;;;;5153033;27;20194;-85
2023/08/13 03:54:44;;;;;;;1.92;1.10;;;19.30;99.90;;;;;;5136343;27;20201;-85
2023/08/13 03:57:16;;;;;;;1.38;0.70;;;19.40;99.90;;;;;;5136021;27;20209;-85
2023/08/13 03:59:47;;;;;;;2.58;1.00;;;19.50;99.90;;;;;;5144182;27;20204;-85
2023/08/13 04:02:18;;;;;;;2.30;0.90;;;19.40;99.90;;;;;;5137458;27;20194;-86
2023/08/13 04:04:48;;;;;;;1.70;0.98;;;19.40;99.90;;;;;;5149970;27;20201;-84
2023/08/13 04:07:19;;;;;;;2.17;0.90;;;19.30;99.90;;;;;;5139798;27;20215;-86
2023/08/13 04:09:52;;;;;;;4.15;2.35;;;19.20;99.90;;;;;;5132048;27;20201;-85
2023/08/13 04:12:23;;;;;;;1.85;1.40;;;19.10;99.90;;;;;;5133617;27;20194;-87
2023/08/13 04:14:54;;;;;;;5.22;1.00;;;19.10;99.90;;;;;;5131924;28;20198;-87
2023/08/13 04:17:25;;;;;;;2.97;1.58;;;19.00;99.90;;;;;;5132521;27;20226;-88
2023/08/13 04:19:56;;;;;;;3.67;1.70;;;19.00;99.90;;;;;;5132539;27;20236;-87
2023/08/13 04:22:27;;;;;;;2.40;1.35;;;19.00;99.90;;;;;;5131914;27;20559;-86
2023/08/13 04:25:00;;;;;;;2.50;0.85;;;19.00;99.90;;;;;;5137020;27;20190;-85
2023/08/13 04:27:30;;;;;;;2.55;0.80;;;18.90;99.90;;;;;;5152880;27;20682;-86
2023/08/13 04:30:01;;;;;;;3.15;1.00;;;18.90;99.90;;;;;;5139937;27;20563;-84
2023/08/13 04:32:32;;;;;;;4.13;1.88;;;18.70;99.90;;;;;;5135893;27;20205;-86
2023/08/13 04:35:03;;;;;;;3.00;1.80;;;18.70;99.90;;;;;;5136514;27;20189;-86
2023/08/13 04:37:40;;;;;;;2.47;1.30;;;18.70;99.90;;;;;;5135359;27;20252;-86
2023/08/13 04:40:15;;;;;;;1.20;0.70;;;18.60;99.90;;;;;;5132677;27;20736;-88
2023/08/13 04:42:46;;;;;;;3.97;1.35;;;18.60;99.90;;;;;;5132165;27;20193;-84
2023/08/13 04:45:20;;;;;;;1.48;0.95;;;18.50;99.90;;;;;;5132214;28;20194;-85
2023/08/13 04:47:51;;;;;;;2.50;0.98;;;18.40;99.90;;;;;;5138583;27;20189;-85
2023/08/13 04:50:21;;;;;;;1.98;1.20;;;18.30;99.90;;;;;;5132664;28;20212;-85
2023/08/13 04:52:52;;;;;;;2.85;1.60;;;18.40;99.90;;;;;;5137960;27;20664;-84
2023/08/13 04:55:25;;;;;;;4.72;2.45;;;18.30;99.90;;;;;;5131513;27;20220;-85
2023/08/13 04:57:56;;;;;;;3.75;1.30;;;18.40;99.90;;;;;;5144081;27;20696;-87
2023/08/13 05:00:32;;;;;;;3.38;1.10;;;18.30;99.90;;;;;;5142277;27;20375;-87
2023/08/13 05:03:03;;;;;;;10.23;1.80;;;18.20;99.90;;;;;;5147168;27;20644;-88
2023/08/13 05:05:34;;;;;;;8.18;1.77;;;18.10;99.90;;;;;;5152714;27;20668;-86
2023/08/13 05:08:05;;;;;;;6.10;1.58;;;18.00;99.90;;;;;;5145763;27;20684;-86
2023/08/13 05:10:40;;;;;;;3.63;1.20;;;18.00;99.90;;;;;;5146899;27;20668;-85
2023/08/13 05:13:11;;;;;;;2.95;1.00;;;18.00;99.90;;;;;;5155853;27;20671;-85
2023/08/13 05:15:47;;;;;;;3.95;1.02;;;17.80;99.90;;;;;;5135394;27;20194;-85
2023/08/13 05:18:26;;;;;;;3.42;1.20;;;17.80;99.90;;;;;;5134893;27;20230;-84
2023/08/13 05:20:59;;;;;;;3.80;1.30;;;17.80;99.90;;;;;;5135487;27;20194;-85
2023/08/13 05:23:30;;;;;;;4.30;1.17;;;17.70;99.90;;;;;;5135192;27;20202;-86
2023/08/13 05:26:06;;;;;;;3.08;1.00;;;17.70;99.90;;;;;;5135205;27;20284;-85
2023/08/13 05:28:37;;;;;;;3.22;0.80;;;17.70;99.90;;;;;;5135522;27;20678;-85
2023/08/13 05:31:10;;;;;;;2.97;1.13;;;17.70;99.90;;;;;;5143743;27;20280;-86
2023/08/13 05:33:44;;;;;;;1.60;0.80;;;17.60;99.90;;;;;;5142143;27;20194;-86
2023/08/13 05:36:39;;;;;;;3.33;0.80;;;17.60;99.90;;;;;;5154288;27;20556;-86
2023/08/13 05:39:10;;;;;;;4.03;1.08;;;17.60;99.90;;;;;;5145092;27;20236;-86
2023/08/13 05:41:48;;;;;;;2.45;0.80;;;17.60;99.90;;;;;;5138445;27;20202;-87
2023/08/13 05:44:22;;;;;;;2.10;0.90;;;17.60;99.90;;;;;;5139585;27;20194;-87
2023/08/13 05:46:53;;;;;;;3.35;1.15;;;17.60;99.90;;;;;;5136004;27;20279;-87
2023/08/13 05:49:24;;;;;;;3.10;0.88;;;17.50;99.90;;;;;;5135878;27;20229;-87
2023/08/13 05:51:54;;;;;;;2.38;1.10;;;17.40;99.90;;;;;;5143574;27;20272;-84
2023/08/13 05:54:28;;;;;;;7.13;1.45;;;17.50;99.90;;;;;;5137481;27;20190;-86
2023/08/13 05:57:10;;;;;;;3.67;1.27;;;17.50;99.90;;;;;;5134596;27;20194;-86
2023/08/13 05:59:41;;;;;;;5.03;1.10;;;17.50;99.90;;;;;;5144404;27;20221;-86
2023/08/13 06:02:15;;;;;;;3.45;0.88;;;17.50;99.90;;;;;;5134002;27;20190;-86
2023/08/13 06:05:00;;;;;;;5.72;1.20;;;17.40;99.90;;;;;;5135265;27;20235;-86
2023/08/13 06:07:30;;;;;;;6.53;1.63;;;17.40;99.90;;;;;;5133747;27;20205;-86
2023/08/13 06:10:06;;;;;;;3.38;1.20;;;17.30;99.90;;;;;;5133826;27;20562;-86
2023/08/13 06:12:45;;;;;;;4.45;1.10;;;17.20;99.90;;;;;;5134183;27;20258;-87
2023/08/13 06:15:19;;;;;;;3.10;1.05;;;17.20;99.90;;;;;;5133551;27;20201;-87
2023/08/13 06:17:50;;;;;;;4.07;1.10;;;17.20;99.90;;;;;;5133394;27;20221;-85
2023/08/13 06:20:24;;;;;;;4.38;1.30;;;17.20;99.90;;;;;;5134137;27;20526;-86
2023/08/13 06:22:58;;;;;;;3.53;1.35;;;17.20;99.90;;;;;;5132416;27;20284;-87
2023/08/13 06:25:30;;;;;;;3.90;1.30;;;17.20;99.90;;;;;;5133807;27;20271;-87
2023/08/13 06:28:03;;;;;;;2.50;0.90;;;17.20;99.90;;;;;;5143868;27;20285;-86
2023/08/13 06:30:36;;;;;;;2.63;1.00;;;17.10;99.90;;;;;;5133660;27;20201;-87
2023/08/13 06:33:07;;;;;;;5.00;1.50;;;17.10;99.90;;;;;;5133116;27;20662;-85
2023/08/13 06:35:45;;;;;;;2.08;1.10;;;17.10;99.90;;;;;;5133767;27;20198;-86
2023/08/13 06:38:17;;;;;;;3.47;1.10;;;17.10;99.90;;;;;;5133560;27;20209;-86
2023/08/13 06:40:50;;;;;;;2.60;1.00;;;17.10;99.90;;;;;;5133615;27;20273;-87
2023/08/13 06:43:23;;;;;;;4.28;1.30;;;17.10;99.90;;;;;;5154374;27;20648;-86
2023/08/13 06:45:56;;;;;;;5.38;1.33;;;17.00;99.90;;;;;;5138032;27;20243;-88
2023/08/13 06:48:31;;;;;;;3.55;1.02;;;17.00;99.90;;;;;;5134123;27;20587;-87
2023/08/13 06:51:02;;;;;;;3.67;1.13;;;17.00;99.90;;;;;;5149395;27;20200;-88
2023/08/13 06:53:48;;;;;;;1.83;1.00;;;16.90;99.90;;;;;;5134064;27;20196;-86
2023/08/13 06:56:28;;;;;;;2.97;1.20;;;16.90;99.90;;;;;;5148616;27;20201;-88
2023/08/13 06:59:02;;;;;;;5.72;1.20;;;16.90;99.90;;;;;;5153296;27;20228;-87
2023/08/13 07:01:56;;;;;;;3.40;1.17;;;17.00;99.90;;;;;;5156359;27;20212;-88
2023/08/13 07:04:27;;;;;;;3.15;1.20;;;17.00;99.90;;;;;;5157352;27;20204;-87
2023/08/13 07:07:04;;;;;;;4.75;1.27;;;17.00;99.90;;;;;;5149124;27;20245;-84
2023/08/13 07:09:43;;;;;;;2.03;0.75;;;17.00;99.90;;;;;;5153457;27;20281;-85
2023/08/13 07:12:38;;;;;;;4.05;1.05;;;17.00;99.90;;;;;;5132276;27;20190;-86
2023/08/13 07:15:14;;;;;;;2.28;1.10;;;16.90;99.90;;;;;;5112598;27;20194;-85
2023/08/13 07:17:45;;;;;;;2.65;1.15;;;17.00;99.90;;;;;;5135152;27;20189;-87
2023/08/13 07:20:30;;;;;;;3.03;1.70;;;16.90;99.90;;;;;;5138636;27;20200;-85
2023/08/13 07:23:19;;;;;;;4.75;1.60;;;16.90;99.90;;;;;;5152711;27;20211;-90
2023/08/13 07:26:05;;;;;;;3.22;1.40;;;16.90;99.90;;;;;;5161930;27;20227;-88
2023/08/13 07:28:40;;;;;;;6.05;1.13;;;16.90;99.90;;;;;;5177249;27;20189;-90
2023/08/13 07:31:34;;;;;;;3.70;1.33;;;16.90;99.90;;;;;;5176881;27;20192;-86
2023/08/13 07:34:06;;;;;;;6.07;1.45;;;16.90;99.90;;;;;;5169970;27;20189;-88
2023/08/13 07:36:39;;;;;;;5.13;2.00;;;16.90;99.90;;;;;;5172142;27;20262;-88
2023/08/13 07:39:12;;;;;;;3.67;1.35;;;17.00;99.90;;;;;;5161286;27;20213;-87
2023/08/13 07:41:49;;;;;;;4.40;1.40;;;16.90;99.90;;;;;;5137294;27;20208;-84
2023/08/13 07:44:42;;;;;;;2.90;1.35;;;16.80;99.90;;;;;;5134957;27;20189;-85
2023/08/13 07:47:32;;;;;;;5.15;1.92;;;16.80;99.90;;;;;;5132207;27;20254;-84
2023/08/13 07:50:11;;;;;;;3.97;1.50;;;16.80;99.90;;;;;;5132396;27;20379;-85
2023/08/13 07:52:45;;;;;;;3.97;1.20;;;16.80;99.90;;;;;;5132680;27;20201;-86
2023/08/13 07:55:23;;;;;;;4.75;1.48;;;16.80;99.90;;;;;;5137448;27;20185;-86
2023/08/13 07:58:04;;;;;;;4.80;1.42;;;16.80;99.90;;;;;;5147589;27;20196;-85
2023/08/13 08:00:48;;;;;;;4.32;1.60;;;16.80;99.90;;;;;;5132738;27;20216;-86
2023/08/13 08:03:22;;;;;;;6.18;1.98;;;16.80;99.90;;;;;;5133275;27;20201;-86
2023/08/13 08:06:13;;;;;;;7.22;2.55;;;16.70;99.90;;;;;;5134306;27;20221;-85
2023/08/13 08:09:16;;;;;;;3.90;1.83;;;16.70;99.90;;;;;;5135910;27;20197;-85
2023/08/13 08:15:02;;;;;;;4.28;2.60;;;16.70;99.90;;;;;;5122804;27;20213;-85
2023/08/13 08:17:33;;;;;;;5.70;2.92;;;16.70;99.90;;;;;;5132420;27;20271;-85
2023/08/13 08:20:13;;;;;;;6.53;3.22;;;16.60;99.90;;;;;;5133492;27;20233;-86
2023/08/13 08:22:49;;;;;;;4.95;2.30;;;16.70;99.90;;;;;;5132567;27;20664;-85
2023/08/13 08:25:25;;;;;;;5.43;1.70;;;16.70;99.90;;;;;;5132581;28;20193;-84
2023/08/13 08:34:29;;;;;;;6.63;3.28;;;16.70;99.90;;;;;;5133234;27;20209;-87
2023/08/13 08:37:26;;;;;;;4.70;2.20;;;16.70;99.90;;;;;;5132315;27;20731;-86
2023/08/13 08:40:06;;;;;;;5.72;1.67;;;16.60;99.90;;;;;;5131219;27;20279;-85
2023/08/13 08:42:44;;;;;;;5.03;1.90;;;16.70;99.90;;;;;;5135953;27;20247;-86
2023/08/13 08:45:22;;;;;;;7.85;2.30;;;16.70;99.90;;;;;;5149062;27;20206;-85
2023/08/13 08:48:02;;;;;;;3.75;2.20;;;16.60;99.90;;;;;;5135692;27;20196;-86
2023/08/13 08:50:48;;;;;;;7.32;1.90;;;16.60;99.90;;;;;;5136008;27;20221;-84
2023/08/13 08:53:33;;;;;;;6.10;2.00;;;16.60;99.90;;;;;;5135005;27;20285;-86
2023/08/13 08:56:04;;;;;;;11.90;6.95;;;16.70;99.90;;;;;;5133233;27;20189;-85
2023/08/13 08:58:38;;;;;;;40.60;26.52;;;16.70;99.90;;;;;;5135638;27;20223;-84
2023/08/13 09:01:09;;;;;;;21.23;14.95;;;16.60;99.90;;;;;;5143648;27;20199;-85
2023/08/13 09:03:40;;;;;;;29.63;20.30;;;16.70;99.90;;;;;;5153689;27;20262;-85
2023/08/13 09:06:10;;;;;;;21.00;12.23;;;16.60;99.90;;;;;;5138646;27;20197;-85
2023/08/13 09:08:43;;;;;;;23.90;16.23;;;16.60;99.90;;;;;;5152380;27;20207;-86
2023/08/13 09:11:14;;;;;;;26.33;18.17;;;16.60;99.90;;;;;;5155332;27;20273;-86
2023/08/13 09:13:54;;;;;;;36.85;25.45;;;16.60;99.90;;;;;;5149392;27;20186;-85
2023/08/13 09:16:24;;;;;;;21.67;14.73;;;16.60;99.90;;;;;;5138695;27;20215;-84
2023/08/13 09:18:55;;;;;;;11.85;7.72;;;16.60;99.90;;;;;;5133768;27;20221;-84
2023/08/13 09:21:29;;;;;;;9.52;4.97;;;16.60;99.90;;;;;;5134314;27;20202;-86
2023/08/13 09:24:01;;;;;;;12.05;5.10;;;16.60;99.90;;;;;;5151422;27;20193;-86
2023/08/13 09:26:32;;;;;;;10.32;4.82;;;16.70;99.90;;;;;;5155015;27;20673;-85
2023/08/13 09:29:04;;;;;;;5.65;2.92;;;16.60;99.90;;;;;;5154123;27;20193;-85
2023/08/13 09:31:36;;;;;;;7.88;2.65;;;16.60;99.90;;;;;;5151579;27;20217;-87
2023/08/13 09:34:07;;;;;;;9.15;2.50;;;16.70;99.90;;;;;;5136863;27;20196;-85
2023/08/13 09:36:38;;;;;;;7.32;2.90;;;16.70;99.90;;;;;;5147436;27;20562;-84
2023/08/13 09:39:11;;;;;;;7.47;2.60;;;16.70;99.90;;;;;;5141760;27;20216;-84
2023/08/13 09:41:42;;;;;;;9.15;2.67;;;16.70;99.90;;;;;;5134519;27;20660;-85
2023/08/13 09:44:14;;;;;;;6.38;3.00;;;16.70;99.90;;;;;;5133559;27;20344;-86
2023/08/13 09:46:48;;;;;;;6.78;2.80;;;16.60;99.90;;;;;;5133854;27;20205;-85
2023/08/13 09:49:20;;;;;;;5.53;2.28;;;16.70;99.90;;;;;;5135971;27;20570;-84
2023/08/13 09:51:56;;;;;;;7.45;3.80;;;16.70;99.90;;;;;;5142924;27;20209;-85
2023/08/13 09:54:40;;;;;;;15.95;9.23;;;16.70;99.90;;;;;;5133611;27;20193;-85
2023/08/13 09:57:36;;;;;;;25.17;17.48;;;16.70;99.90;;;;;;5140389;27;20197;-87
2023/08/13 10:00:32;;;;;;;8.95;5.35;;;16.70;99.90;;;;;;5125822;27;20247;-86
2023/08/13 10:03:04;;;;;;;11.77;5.55;;;16.60;99.90;;;;;;5132266;27;20194;-85
2023/08/13 10:05:35;;;;;;;7.90;5.00;;;16.60;99.90;;;;;;5133343;27;20213;-86
2023/08/13 10:08:06;;;;;;;10.18;5.50;;;16.60;99.90;;;;;;5127879;27;20186;-83
2023/08/13 10:10:37;;;;;;;8.25;3.90;;;16.70;99.90;;;;;;5148981;27;20189;-83
2023/08/13 10:13:09;;;;;;;5.88;2.90;;;16.70;99.90;;;;;;5154384;27;20185;-85
2023/08/13 10:15:42;;;;;;;4.65;3.10;;;16.70;99.90;;;;;;5141598;27;20274;-84
2023/08/13 10:18:14;;;;;;;4.35;2.30;;;16.80;99.90;;;;;;5132191;27;20585;-85
2023/08/13 10:20:51;;;;;;;5.93;1.67;;;16.90;99.90;;;;;;5153676;27;20225;-84
2023/08/13 10:23:24;;;;;;;5.25;1.80;;;16.90;99.90;;;;;;5134697;27;20237;-86
2023/08/13 10:26:11;;;;;;;4.35;1.40;;;16.80;99.90;;;;;;5140331;27;20268;-84
2023/08/13 10:28:42;;;;;;;3.30;1.25;;;16.80;99.90;;;;;;5153660;27;20208;-85
2023/08/13 10:31:34;;;;;;;4.60;1.60;;;16.80;99.90;;;;;;5153388;27;20228;-84
2023/08/13 10:34:15;;;;;;;16.70;11.48;;;16.80;99.90;;;;;;5136878;27;20288;-85
2023/08/13 10:36:55;;;;;;;68.55;51.63;;;16.80;99.90;;;;;;5132536;27;20564;-84
2023/08/13 10:40:05;;;;;;;38.47;29.55;;;16.80;99.90;;;;;;5133138;27;20266;-86
2023/08/13 10:42:58;;;;;;;14.68;10.60;;;16.80;99.90;;;;;;5133503;27;20198;-84
2023/08/13 10:45:35;;;;;;;8.40;4.65;;;16.70;99.90;;;;;;5132648;27;20660;-83
2023/08/13 10:48:48;;;;;;;7.32;3.47;;;16.70;99.90;;;;;;5148739;27;20201;-85
2023/08/13 10:51:27;;;;;;;9.15;3.80;;;16.70;99.90;;;;;;5114806;27;20197;-84
2023/08/13 10:54:24;;;;;;;6.15;2.13;;;16.60;99.90;;;;;;5149602;27;20276;-84
2023/08/13 10:57:00;;;;;;;7.32;4.00;;;16.50;99.90;;;;;;5120377;27;20202;-84
2023/08/13 10:59:36;;;;;;;16.05;11.20;;;16.60;99.90;;;;;;5132369;27;20217;-85
2023/08/13 11:02:15;;;;;;;12.25;8.43;;;16.60;99.90;;;;;;5136072;27;20184;-85
2023/08/13 11:04:46;;;;;;;6.25;4.05;;;16.70;99.90;;;;;;5139846;27;20222;-85
2023/08/13 11:07:19;;;;;;;4.78;2.85;;;16.70;99.90;;;;;;5140551;27;20221;-85
2023/08/13 11:09:51;;;;;;;5.88;2.70;;;16.70;99.90;;;;;;5133265;27;20201;-85
2023/08/13 11:12:23;;;;;;;4.53;2.28;;;16.70;99.90;;;;;;5134159;27;20206;-86
2023/08/13 11:14:54;;;;;;;5.15;2.10;;;16.70;99.90;;;;;;5142895;27;20193;-85
2023/08/13 11:17:25;;;;;;;5.38;1.48;;;16.80;99.90;;;;;;5143002;27;20293;-85
2023/08/13 11:20:00;;;;;;;4.50;1.70;;;16.80;99.90;;;;;;5132071;27;20324;-86
2023/08/13 11:22:33;;;;;;;5.53;1.80;;;16.80;99.90;;;;;;5132966;27;20225;-84
2023/08/13 11:25:06;;;;;;;2.53;1.45;;;16.80;99.90;;;;;;5133441;27;20232;-86
2023/08/13 11:27:38;;;;;;;4.60;1.70;;;16.80;99.90;;;;;;5133841;27;20182;-86
2023/08/13 11:30:16;;;;;;;5.63;2.10;;;16.70;99.90;;;;;;5137285;27;20230;-87
2023/08/13 11:32:54;;;;;;;5.63;2.13;;;16.80;99.90;;;;;;5154340;27;20209;-86
2023/08/13 11:35:35;;;;;;;4.65;1.70;;;16.80;99.90;;;;;;5133617;27;20555;-86
2023/08/13 11:38:18;;;;;;;5.63;2.22;;;16.80;99.90;;;;;;5154352;27;20193;-86
2023/08/13 11:40:52;;;;;;;5.63;2.95;;;16.80;99.90;;;;;;5142500;27;20560;-85
2023/08/13 11:43:24;;;;;;;6.82;4.43;;;16.80;99.90;;;;;;5153440;27;20225;-84
2023/08/13 11:46:13;;;;;;;6.53;3.40;;;16.80;99.90;;;;;;5146611;27;20644;-84
2023/08/13 11:49:20;;;;;;;5.93;2.33;;;16.80;99.90;;;;;;5132111;27;20190;-86
2023/08/13 11:52:10;;;;;;;4.80;1.85;;;16.80;99.90;;;;;;5131437;27;20224;-84
2023/08/13 11:54:46;;;;;;;3.83;1.73;;;16.80;99.90;;;;;;5132147;27;20201;-85
2023/08/13 11:57:21;;;;;;;4.82;1.38;;;16.80;99.90;;;;;;5131684;27;20201;-85
2023/08/13 11:59:55;;;;;;;4.53;1.70;;;16.80;99.90;;;;;;5131932;27;20221;-89
2023/08/13 12:02:27;;;;;;;5.68;1.33;;;16.70;99.90;;;;;;5133772;27;20206;-85
2023/08/13 12:04:58;;;;;;;3.10;0.90;;;16.70;99.90;;;;;;5133023;27;20214;-85
2023/08/13 12:07:29;;;;;;;4.78;1.00;;;16.70;99.90;;;;;;5139869;27;20204;-85
2023/08/13 12:10:02;;;;;;;3.90;1.00;;;16.60;99.90;;;;;;5137811;27;20201;-83
2023/08/13 12:12:33;;;;;;;4.07;1.08;;;16.60;99.90;;;;;;5132470;27;20637;-84
2023/08/13 12:15:04;;;;;;;3.80;0.90;;;16.60;99.90;;;;;;5131613;27;20568;-85
2023/08/13 12:17:35;;;;;;;3.92;1.00;;;16.50;99.90;;;;;;5138127;27;20197;-84
2023/08/13 12:20:06;;;;;;;3.42;1.00;;;16.50;99.90;;;;;;5138542;27;20240;-83
2023/08/13 12:22:36;;;;;;;4.15;1.20;;;16.50;99.90;;;;;;5141333;27;20281;-84
2023/08/13 12:25:10;;;;;;;3.45;1.20;;;16.50;99.90;;;;;;5157021;27;20675;-83
2023/08/13 12:27:42;;;;;;;4.70;1.13;;;16.40;99.90;;;;;;5157016;27;20669;-83
2023/08/13 12:30:15;;;;;;;5.15;1.02;;;16.40;99.90;;;;;;5157076;27;20208;-82
2023/08/13 12:32:46;;;;;;;4.75;1.10;;;16.30;99.90;;;;;;5147100;27;20190;-83
2023/08/13 12:35:17;;;;;;;3.97;1.00;;;16.30;99.90;;;;;;5134958;27;20671;-84
2023/08/13 12:37:48;;;;;;;4.00;0.98;;;16.30;99.90;;;;;;5135714;27;20283;-84
2023/08/13 12:40:21;;;;;;;3.85;1.10;;;16.30;99.90;;;;;;5147427;27;20635;-84
2023/08/13 12:42:51;;;;;;;3.17;0.73;;;16.20;99.90;;;;;;5156958;27;20230;-84
2023/08/13 12:45:22;;;;;;;6.20;1.00;;;16.20;99.90;;;;;;5156873;27;20218;-84
2023/08/13 12:47:53;;;;;;;7.43;2.28;;;16.20;99.90;;;;;;5153504;27;20201;-84
2023/08/13 12:50:24;;;;;;;6.47;2.00;;;16.20;99.90;;;;;;5136530;27;20201;-83
2023/08/13 12:52:55;;;;;;;3.20;1.48;;;16.10;99.90;;;;;;5144488;27;20202;-84
2023/08/13 12:55:28;;;;;;;7.70;2.03;;;16.10;99.90;;;;;;5155520;27;20197;-83
2023/08/13 12:57:59;;;;;;;10.80;2.38;;;16.00;99.90;;;;;;5143597;27;20668;-86
2023/08/13 13:00:30;;;;;;;7.95;2.25;;;16.00;99.90;;;;;;5134695;27;20221;-84
2023/08/13 13:03:00;;;;;;;6.63;2.17;;;15.90;99.90;;;;;;5136744;27;20193;-84
2023/08/13 13:05:31;;;;;;;5.85;2.40;;;15.80;99.90;;;;;;5135000;27;20214;-81
2023/08/13 13:08:02;;;;;;;6.88;2.28;;;15.70;99.90;;;;;;5134729;27;20194;-83
2023/08/13 13:10:34;;;;;;;6.07;2.22;;;15.60;99.90;;;;;;5134219;27;20193;-85
2023/08/13 13:13:06;;;;;;;7.88;2.50;;;15.60;99.90;;;;;;5156021;27;20659;-83
2023/08/13 13:15:37;;;;;;;7.35;2.60;;;15.50;99.90;;;;;;5135953;27;20664;-82
2023/08/13 13:18:08;;;;;;;7.20;2.13;;;15.40;99.90;;;;;;5135402;27;20237;-83
2023/08/13 13:20:39;;;;;;;9.35;2.33;;;15.40;99.90;;;;;;5145964;27;20718;-84
2023/08/13 13:23:09;;;;;;;12.93;2.60;;;15.30;99.90;;;;;;5135558;27;20250;-83
2023/08/13 13:25:42;;;;;;;7.47;2.10;;;15.30;99.90;;;;;;5143233;27;20190;-82
2023/08/13 13:28:13;;;;;;;4.82;1.58;;;15.20;99.90;;;;;;5155597;27;20197;-84
2023/08/13 13:30:44;;;;;;;8.85;2.25;;;15.10;99.90;;;;;;5153048;27;20292;-83
2023/08/13 13:33:15;;;;;;;3.67;1.70;;;15.10;99.90;;;;;;5134878;27;20246;-83